sensor_id;sensor_type;location;lat;lon;timestamp;P1;durP1;ratioP1;P2;durP2;ratioP2
18114;SDS011;9184;54.390;18.620;2023-02-03T00:00:02;15.07;;;7.10;;
18114;SDS011;9184;54.390;18.620;2023-02-03T00:02:50;11.55;;;6.18;;
18114;SDS011;9184;54.390;18.620;2023-02-03T00:03:23;16.00;;;7.78;;
18114;SDS011;9184;54.390;18.620;2023-02-03T00:03:54;14.20;;;7.70;;
18114;SDS011;9184;54.390;18.620;2023-02-03T00:04:25;16.05;;;8.05;;
18114;SDS011;9184;54.390;18.620;2023-02-03T00:04:56;14.57;;;8.90;;
18114;SDS011;9184;54.390;18.620;2023-02-03T00:05:27;14.30;;;7.93;;
18114;SDS011;9184;54.390;18.620;2023-02-03T00:05:58;17.42;;;8.10;;
18114;SDS011;9184;54.390;18.620;2023-02-03T00:06:30;16.15;;;7.72;;
18114;SDS011;9184;54.390;18.620;2023-02-03T00:07:01;14.20;;;7.67;;
18114;SDS011;9184;54.390;18.620;2023-02-03T00:07:31;14.93;;;8.30;;
18114;SDS011;9184;54.390;18.620;2023-02-03T00:08:04;18.38;;;7.72;;
18114;SDS011;9184;54.390;18.620;2023-02-03T00:08:35;17.20;;;9.27;;
18114;SDS011;9184;54.390;18.620;2023-02-03T00:09:06;16.20;;;8.13;;
18114;SDS011;9184;54.390;18.620;2023-02-03T00:09:38;13.88;;;7.68;;
18114;SDS011;9184;54.390;18.620;2023-02-03T00:10:09;17.27;;;8.83;;
18114;SDS011;9184;54.390;18.620;2023-02-03T00:10:40;17.53;;;8.43;;
18114;SDS011;9184;54.390;18.620;2023-02-03T00:11:13;20.27;;;8.88;;
18114;SDS011;9184;54.390;18.620;2023-02-03T00:11:44;17.05;;;8.55;;
18114;SDS011;9184;54.390;18.620;2023-02-03T00:12:15;13.43;;;7.25;;
18114;SDS011;9184;54.390;18.620;2023-02-03T00:12:46;11.93;;;7.30;;
18114;SDS011;9184;54.390;18.620;2023-02-03T00:13:17;16.00;;;8.63;;
18114;SDS011;9184;54.390;18.620;2023-02-03T00:13:48;14.00;;;8.73;;
18114;SDS011;9184;54.390;18.620;2023-02-03T00:14:18;23.07;;;15.23;;
18114;SDS011;9184;54.390;18.620;2023-02-03T00:14:50;19.38;;;12.00;;
18114;SDS011;9184;54.390;18.620;2023-02-03T00:15:20;16.37;;;9.73;;
18114;SDS011;9184;54.390;18.620;2023-02-03T00:15:52;15.07;;;9.55;;
18114;SDS011;9184;54.390;18.620;2023-02-03T00:16:23;15.30;;;10.63;;
18114;SDS011;9184;54.390;18.620;2023-02-03T00:16:54;17.40;;;9.03;;
18114;SDS011;9184;54.390;18.620;2023-02-03T00:17:24;16.90;;;9.33;;
18114;SDS011;9184;54.390;18.620;2023-02-03T00:17:56;15.52;;;9.95;;
18114;SDS011;9184;54.390;18.620;2023-02-03T00:18:26;21.10;;;9.80;;
18114;SDS011;9184;54.390;18.620;2023-02-03T00:18:57;22.63;;;10.57;;
18114;SDS011;9184;54.390;18.620;2023-02-03T00:19:28;15.63;;;9.38;;
18114;SDS011;9184;54.390;18.620;2023-02-03T00:19:59;18.70;;;8.97;;
18114;SDS011;9184;54.390;18.620;2023-02-03T00:20:29;16.57;;;9.47;;
18114;SDS011;9184;54.390;18.620;2023-02-03T00:21:01;16.75;;;9.27;;
18114;SDS011;9184;54.390;18.620;2023-02-03T00:21:31;12.13;;;7.67;;
18114;SDS011;9184;54.390;18.620;2023-02-03T00:22:02;14.73;;;8.53;;
18114;SDS011;9184;54.390;18.620;2023-02-03T00:22:33;18.65;;;9.38;;
18114;SDS011;9184;54.390;18.620;2023-02-03T00:23:04;13.77;;;8.37;;
18114;SDS011;9184;54.390;18.620;2023-02-03T00:23:35;15.97;;;9.03;;
18114;SDS011;9184;54.390;18.620;2023-02-03T00:24:06;17.75;;;9.27;;
18114;SDS011;9184;54.390;18.620;2023-02-03T00:24:37;20.67;;;9.97;;
18114;SDS011;9184;54.390;18.620;2023-02-03T00:25:07;19.70;;;9.50;;
18114;SDS011;9184;54.390;18.620;2023-02-03T00:25:39;14.40;;;8.40;;
18114;SDS011;9184;54.390;18.620;2023-02-03T00:26:10;16.57;;;9.80;;
18114;SDS011;9184;54.390;18.620;2023-02-03T00:26:42;20.27;;;9.13;;
18114;SDS011;9184;54.390;18.620;2023-02-03T00:27:14;18.88;;;9.45;;
18114;SDS011;9184;54.390;18.620;2023-02-03T00:27:44;17.60;;;8.83;;
18114;SDS011;9184;54.390;18.620;2023-02-03T00:28:15;14.70;;;8.93;;
18114;SDS011;9184;54.390;18.620;2023-02-03T00:28:46;15.15;;;8.70;;
18114;SDS011;9184;54.390;18.620;2023-02-03T00:29:17;18.73;;;8.37;;
18114;SDS011;9184;54.390;18.620;2023-02-03T00:29:47;17.20;;;8.70;;
18114;SDS011;9184;54.390;18.620;2023-02-03T00:30:19;16.95;;;9.18;;
18114;SDS011;9184;54.390;18.620;2023-02-03T00:30:49;15.10;;;8.33;;
18114;SDS011;9184;54.390;18.620;2023-02-03T00:31:23;27.40;;;8.82;;
18114;SDS011;9184;54.390;18.620;2023-02-03T00:31:54;18.67;;;8.85;;
18114;SDS011;9184;54.390;18.620;2023-02-03T00:32:25;22.80;;;9.70;;
18114;SDS011;9184;54.390;18.620;2023-02-03T00:32:55;14.50;;;8.60;;
18114;SDS011;9184;54.390;18.620;2023-02-03T00:33:27;18.30;;;9.60;;
18114;SDS011;9184;54.390;18.620;2023-02-03T00:33:58;16.93;;;9.27;;
18114;SDS011;9184;54.390;18.620;2023-02-03T00:34:29;17.13;;;8.77;;
18114;SDS011;9184;54.390;18.620;2023-02-03T00:35:00;20.77;;;9.77;;
18114;SDS011;9184;54.390;18.620;2023-02-03T00:35:31;18.57;;;9.43;;
18114;SDS011;9184;54.390;18.620;2023-02-03T00:36:03;20.37;;;9.90;;
18114;SDS011;9184;54.390;18.620;2023-02-03T00:36:34;17.48;;;9.38;;
18114;SDS011;9184;54.390;18.620;2023-02-03T00:37:06;19.25;;;9.82;;
18114;SDS011;9184;54.390;18.620;2023-02-03T00:37:36;17.53;;;9.00;;
18114;SDS011;9184;54.390;18.620;2023-02-03T00:38:07;18.27;;;9.60;;
18114;SDS011;9184;54.390;18.620;2023-02-03T00:38:38;21.40;;;9.55;;
18114;SDS011;9184;54.390;18.620;2023-02-03T00:39:09;14.53;;;9.03;;
18114;SDS011;9184;54.390;18.620;2023-02-03T00:39:39;22.10;;;9.93;;
18114;SDS011;9184;54.390;18.620;2023-02-03T00:40:11;19.35;;;9.85;;
18114;SDS011;9184;54.390;18.620;2023-02-03T00:44:12;15.27;;;8.93;;
18114;SDS011;9184;54.390;18.620;2023-02-03T00:44:44;19.02;;;10.00;;
18114;SDS011;9184;54.390;18.620;2023-02-03T00:45:14;18.03;;;9.53;;
18114;SDS011;9184;54.390;18.620;2023-02-03T00:45:45;17.30;;;9.80;;
18114;SDS011;9184;54.390;18.620;2023-02-03T00:46:16;15.05;;;9.55;;
18114;SDS011;9184;54.390;18.620;2023-02-03T00:46:47;20.23;;;9.40;;
18114;SDS011;9184;54.390;18.620;2023-02-03T00:47:17;17.30;;;10.07;;
18114;SDS011;9184;54.390;18.620;2023-02-03T00:47:48;17.15;;;9.18;;
18114;SDS011;9184;54.390;18.620;2023-02-03T00:48:19;24.20;;;10.03;;
18114;SDS011;9184;54.390;18.620;2023-02-03T00:48:49;20.53;;;10.07;;
18114;SDS011;9184;54.390;18.620;2023-02-03T00:49:20;19.73;;;10.80;;
18114;SDS011;9184;54.390;18.620;2023-02-03T00:49:52;19.98;;;10.68;;
18114;SDS011;9184;54.390;18.620;2023-02-03T00:50:22;21.37;;;10.27;;
18114;SDS011;9184;54.390;18.620;2023-02-03T00:50:53;17.10;;;10.63;;
18114;SDS011;9184;54.390;18.620;2023-02-03T00:51:24;20.88;;;9.45;;
18114;SDS011;9184;54.390;18.620;2023-02-03T00:51:55;17.90;;;10.27;;
18114;SDS011;9184;54.390;18.620;2023-02-03T00:52:25;17.37;;;10.03;;
18114;SDS011;9184;54.390;18.620;2023-02-03T00:52:57;21.95;;;10.52;;
18114;SDS011;9184;54.390;18.620;2023-02-03T00:53:27;21.20;;;10.60;;
18114;SDS011;9184;54.390;18.620;2023-02-03T00:53:58;19.57;;;10.80;;
18114;SDS011;9184;54.390;18.620;2023-02-03T00:54:28;22.10;;;11.47;;
18114;SDS011;9184;54.390;18.620;2023-02-03T00:55:00;22.40;;;11.32;;
18114;SDS011;9184;54.390;18.620;2023-02-03T00:55:30;19.80;;;11.00;;
18114;SDS011;9184;54.390;18.620;2023-02-03T00:56:00;17.13;;;10.30;;
18114;SDS011;9184;54.390;18.620;2023-02-03T00:56:32;24.23;;;11.43;;
18114;SDS011;9184;54.390;18.620;2023-02-03T00:57:02;22.17;;;11.47;;
18114;SDS011;9184;54.390;18.620;2023-02-03T00:57:33;18.40;;;10.60;;
18114;SDS011;9184;54.390;18.620;2023-02-03T00:58:03;18.53;;;10.93;;
18114;SDS011;9184;54.390;18.620;2023-02-03T00:58:35;19.17;;;11.18;;
18114;SDS011;9184;54.390;18.620;2023-02-03T00:59:07;18.00;;;10.80;;
18114;SDS011;9184;54.390;18.620;2023-02-03T00:59:38;21.90;;;10.33;;
18114;SDS011;9184;54.390;18.620;2023-02-03T01:00:10;21.48;;;11.15;;
18114;SDS011;9184;54.390;18.620;2023-02-03T01:00:41;22.10;;;10.82;;
18114;SDS011;9184;54.390;18.620;2023-02-03T01:01:11;22.47;;;11.33;;
18114;SDS011;9184;54.390;18.620;2023-02-03T01:01:43;18.30;;;11.07;;
18114;SDS011;9184;54.390;18.620;2023-02-03T01:02:14;24.60;;;11.20;;
18114;SDS011;9184;54.390;18.620;2023-02-03T01:02:46;21.75;;;11.35;;
18114;SDS011;9184;54.390;18.620;2023-02-03T01:03:17;24.52;;;12.02;;
18114;SDS011;9184;54.390;18.620;2023-02-03T01:03:47;18.40;;;10.13;;
18114;SDS011;9184;54.390;18.620;2023-02-03T01:04:18;17.10;;;10.23;;
18114;SDS011;9184;54.390;18.620;2023-02-03T01:04:50;26.50;;;11.98;;
18114;SDS011;9184;54.390;18.620;2023-02-03T01:05:20;23.80;;;12.50;;
18114;SDS011;9184;54.390;18.620;2023-02-03T01:05:50;22.23;;;11.03;;
18114;SDS011;9184;54.390;18.620;2023-02-03T01:06:22;20.88;;;11.77;;
18114;SDS011;9184;54.390;18.620;2023-02-03T01:06:53;24.50;;;11.63;;
18114;SDS011;9184;54.390;18.620;2023-02-03T01:07:26;19.23;;;11.50;;
18114;SDS011;9184;54.390;18.620;2023-02-03T01:07:59;17.17;;;11.60;;
18114;SDS011;9184;54.390;18.620;2023-02-03T01:08:29;21.27;;;11.73;;
18114;SDS011;9184;54.390;18.620;2023-02-03T01:09:01;22.55;;;11.77;;
18114;SDS011;9184;54.390;18.620;2023-02-03T01:09:32;23.67;;;11.10;;
18114;SDS011;9184;54.390;18.620;2023-02-03T01:10:03;22.20;;;12.17;;
18114;SDS011;9184;54.390;18.620;2023-02-03T01:10:36;24.87;;;14.17;;
18114;SDS011;9184;54.390;18.620;2023-02-03T01:11:07;21.98;;;12.45;;
18114;SDS011;9184;54.390;18.620;2023-02-03T01:11:39;21.98;;;12.35;;
18114;SDS011;9184;54.390;18.620;2023-02-03T01:12:10;24.02;;;11.82;;
18114;SDS011;9184;54.390;18.620;2023-02-03T01:12:41;23.40;;;12.10;;
18114;SDS011;9184;54.390;18.620;2023-02-03T01:13:12;22.38;;;11.57;;
18114;SDS011;9184;54.390;18.620;2023-02-03T01:13:43;19.27;;;11.57;;
18114;SDS011;9184;54.390;18.620;2023-02-03T01:14:13;23.23;;;13.07;;
18114;SDS011;9184;54.390;18.620;2023-02-03T01:14:46;23.45;;;12.57;;
18114;SDS011;9184;54.390;18.620;2023-02-03T01:15:17;23.60;;;12.98;;
18114;SDS011;9184;54.390;18.620;2023-02-03T01:15:47;23.13;;;13.53;;
18114;SDS011;9184;54.390;18.620;2023-02-03T01:16:20;21.98;;;12.75;;
18114;SDS011;9184;54.390;18.620;2023-02-03T01:16:50;25.30;;;12.38;;
18114;SDS011;9184;54.390;18.620;2023-02-03T01:17:21;24.37;;;12.43;;
18114;SDS011;9184;54.390;18.620;2023-02-03T01:17:52;23.05;;;12.25;;
18114;SDS011;9184;54.390;18.620;2023-02-03T01:18:23;17.07;;;11.03;;
18114;SDS011;9184;54.390;18.620;2023-02-03T01:18:54;28.93;;;12.80;;
18114;SDS011;9184;54.390;18.620;2023-02-03T01:19:25;28.63;;;12.88;;
18114;SDS011;9184;54.390;18.620;2023-02-03T01:19:56;26.47;;;13.37;;
18114;SDS011;9184;54.390;18.620;2023-02-03T01:20:27;23.65;;;12.45;;
18114;SDS011;9184;54.390;18.620;2023-02-03T01:21:00;22.77;;;12.03;;
18114;SDS011;9184;54.390;18.620;2023-02-03T01:21:33;23.63;;;12.52;;
18114;SDS011;9184;54.390;18.620;2023-02-03T01:22:05;22.10;;;13.18;;
18114;SDS011;9184;54.390;18.620;2023-02-03T01:22:35;25.27;;;12.90;;
18114;SDS011;9184;54.390;18.620;2023-02-03T01:23:06;28.27;;;13.30;;
18114;SDS011;9184;54.390;18.620;2023-02-03T01:23:36;25.10;;;13.30;;
18114;SDS011;9184;54.390;18.620;2023-02-03T01:24:08;21.75;;;12.10;;
18114;SDS011;9184;54.390;18.620;2023-02-03T01:24:38;33.70;;;13.77;;
18114;SDS011;9184;54.390;18.620;2023-02-03T01:25:09;24.27;;;13.40;;
18114;SDS011;9184;54.390;18.620;2023-02-03T01:25:40;26.13;;;13.02;;
18114;SDS011;9184;54.390;18.620;2023-02-03T01:26:13;24.97;;;13.50;;
18114;SDS011;9184;54.390;18.620;2023-02-03T01:26:44;25.52;;;12.48;;
18114;SDS011;9184;54.390;18.620;2023-02-03T01:27:15;22.48;;;12.38;;
18114;SDS011;9184;54.390;18.620;2023-02-03T01:27:46;26.67;;;13.30;;
18114;SDS011;9184;54.390;18.620;2023-02-03T01:28:16;22.30;;;12.50;;
18114;SDS011;9184;54.390;18.620;2023-02-03T01:28:51;24.25;;;12.75;;
18114;SDS011;9184;54.390;18.620;2023-02-03T01:29:22;22.67;;;11.98;;
18114;SDS011;9184;54.390;18.620;2023-02-03T01:29:54;21.53;;;12.40;;
18114;SDS011;9184;54.390;18.620;2023-02-03T01:30:25;23.80;;;13.18;;
18114;SDS011;9184;54.390;18.620;2023-02-03T01:30:56;22.53;;;12.97;;
18114;SDS011;9184;54.390;18.620;2023-02-03T01:31:27;25.30;;;12.80;;
18114;SDS011;9184;54.390;18.620;2023-02-03T01:31:59;24.83;;;12.65;;
18114;SDS011;9184;54.390;18.620;2023-02-03T01:32:29;23.97;;;12.93;;
18114;SDS011;9184;54.390;18.620;2023-02-03T01:33:00;23.37;;;12.20;;
18114;SDS011;9184;54.390;18.620;2023-02-03T01:33:31;21.45;;;12.23;;
18114;SDS011;9184;54.390;18.620;2023-02-03T01:34:02;26.07;;;13.93;;
18114;SDS011;9184;54.390;18.620;2023-02-03T01:34:32;26.70;;;12.57;;
18114;SDS011;9184;54.390;18.620;2023-02-03T01:35:04;26.08;;;12.85;;
18114;SDS011;9184;54.390;18.620;2023-02-03T01:35:35;25.60;;;11.73;;
18114;SDS011;9184;54.390;18.620;2023-02-03T01:36:06;24.30;;;13.00;;
18114;SDS011;9184;54.390;18.620;2023-02-03T01:36:38;26.65;;;12.60;;
18114;SDS011;9184;54.390;18.620;2023-02-03T01:37:08;25.63;;;11.83;;
18114;SDS011;9184;54.390;18.620;2023-02-03T01:37:39;23.73;;;12.50;;
18114;SDS011;9184;54.390;18.620;2023-02-03T01:38:10;24.33;;;12.05;;
18114;SDS011;9184;54.390;18.620;2023-02-03T01:38:41;25.83;;;12.90;;
18114;SDS011;9184;54.390;18.620;2023-02-03T01:39:12;25.03;;;12.80;;
18114;SDS011;9184;54.390;18.620;2023-02-03T01:39:43;27.38;;;13.23;;
18114;SDS011;9184;54.390;18.620;2023-02-03T01:40:14;32.10;;;13.50;;
18114;SDS011;9184;54.390;18.620;2023-02-03T01:40:44;27.93;;;12.63;;
18114;SDS011;9184;54.390;18.620;2023-02-03T01:41:16;23.88;;;12.80;;
18114;SDS011;9184;54.390;18.620;2023-02-03T01:41:47;24.92;;;13.55;;
18114;SDS011;9184;54.390;18.620;2023-02-03T01:42:17;20.20;;;12.57;;
18114;SDS011;9184;54.390;18.620;2023-02-03T01:42:49;27.92;;;12.80;;
18114;SDS011;9184;54.390;18.620;2023-02-03T01:43:29;22.33;;;12.13;;
18114;SDS011;9184;54.390;18.620;2023-02-03T01:44:00;24.67;;;12.32;;
18114;SDS011;9184;54.390;18.620;2023-02-03T01:44:42;29.08;;;14.10;;
18114;SDS011;9184;54.390;18.620;2023-02-03T01:45:14;22.65;;;11.98;;
18114;SDS011;9184;54.390;18.620;2023-02-03T01:45:49;36.40;;;13.32;;
18114;SDS011;9184;54.390;18.620;2023-02-03T01:46:29;22.57;;;12.90;;
18114;SDS011;9184;54.390;18.620;2023-02-03T01:47:00;21.60;;;12.77;;
18114;SDS011;9184;54.390;18.620;2023-02-03T01:47:32;23.70;;;12.57;;
18114;SDS011;9184;54.390;18.620;2023-02-03T01:48:04;22.00;;;12.10;;
18114;SDS011;9184;54.390;18.620;2023-02-03T01:48:35;19.03;;;10.50;;
18114;SDS011;9184;54.390;18.620;2023-02-03T01:49:07;22.10;;;12.25;;
18114;SDS011;9184;54.390;18.620;2023-02-03T01:49:39;23.63;;;12.38;;
18114;SDS011;9184;54.390;18.620;2023-02-03T01:50:12;22.63;;;12.00;;
18114;SDS011;9184;54.390;18.620;2023-02-03T01:50:44;22.98;;;12.10;;
18114;SDS011;9184;54.390;18.620;2023-02-03T01:51:15;25.37;;;13.07;;
18114;SDS011;9184;54.390;18.620;2023-02-03T01:51:45;24.20;;;11.50;;
18114;SDS011;9184;54.390;18.620;2023-02-03T01:52:17;19.58;;;10.63;;
18114;SDS011;9184;54.390;18.620;2023-02-03T01:52:48;18.97;;;9.83;;
18114;SDS011;9184;54.390;18.620;2023-02-03T01:53:20;23.08;;;11.55;;
18114;SDS011;9184;54.390;18.620;2023-02-03T01:53:52;22.48;;;11.77;;
18114;SDS011;9184;54.390;18.620;2023-02-03T01:54:23;22.87;;;11.57;;
18114;SDS011;9184;54.390;18.620;2023-02-03T01:54:56;22.88;;;10.93;;
18114;SDS011;9184;54.390;18.620;2023-02-03T01:55:29;21.33;;;11.40;;
18114;SDS011;9184;54.390;18.620;2023-02-03T01:56:02;23.42;;;10.98;;
18114;SDS011;9184;54.390;18.620;2023-02-03T01:56:34;20.95;;;12.15;;
18114;SDS011;9184;54.390;18.620;2023-02-03T01:57:09;25.48;;;11.20;;
18114;SDS011;9184;54.390;18.620;2023-02-03T01:57:41;27.05;;;12.32;;
18114;SDS011;9184;54.390;18.620;2023-02-03T01:58:14;21.23;;;11.50;;
18114;SDS011;9184;54.390;18.620;2023-02-03T01:58:46;23.20;;;11.85;;
18114;SDS011;9184;54.390;18.620;2023-02-03T01:59:17;22.10;;;12.35;;
18114;SDS011;9184;54.390;18.620;2023-02-03T01:59:49;26.10;;;12.38;;
18114;SDS011;9184;54.390;18.620;2023-02-03T02:00:22;20.55;;;12.60;;
18114;SDS011;9184;54.390;18.620;2023-02-03T02:00:54;22.73;;;12.55;;
18114;SDS011;9184;54.390;18.620;2023-02-03T02:01:26;18.52;;;11.80;;
18114;SDS011;9184;54.390;18.620;2023-02-03T02:01:58;22.65;;;12.35;;
18114;SDS011;9184;54.390;18.620;2023-02-03T02:02:30;23.83;;;12.88;;
18114;SDS011;9184;54.390;18.620;2023-02-03T02:03:01;23.90;;;13.50;;
18114;SDS011;9184;54.390;18.620;2023-02-03T02:03:35;25.55;;;13.15;;
18114;SDS011;9184;54.390;18.620;2023-02-03T02:04:06;26.23;;;13.98;;
18114;SDS011;9184;54.390;18.620;2023-02-03T02:04:38;25.03;;;14.50;;
18114;SDS011;9184;54.390;18.620;2023-02-03T02:05:13;21.17;;;12.75;;
18114;SDS011;9184;54.390;18.620;2023-02-03T02:05:48;21.42;;;13.02;;
18114;SDS011;9184;54.390;18.620;2023-02-03T02:06:19;23.10;;;13.10;;
18114;SDS011;9184;54.390;18.620;2023-02-03T02:06:49;20.90;;;12.27;;
18114;SDS011;9184;54.390;18.620;2023-02-03T02:07:21;22.30;;;12.75;;
18114;SDS011;9184;54.390;18.620;2023-02-03T02:07:52;21.75;;;12.90;;
18114;SDS011;9184;54.390;18.620;2023-02-03T02:08:24;26.88;;;13.60;;
18114;SDS011;9184;54.390;18.620;2023-02-03T02:08:56;21.77;;;13.48;;
18114;SDS011;9184;54.390;18.620;2023-02-03T02:09:27;17.55;;;11.98;;
18114;SDS011;9184;54.390;18.620;2023-02-03T02:09:58;24.42;;;13.57;;
18114;SDS011;9184;54.390;18.620;2023-02-03T02:10:29;24.80;;;14.37;;
18114;SDS011;9184;54.390;18.620;2023-02-03T02:11:00;21.73;;;12.30;;
18114;SDS011;9184;54.390;18.620;2023-02-03T02:11:31;26.43;;;14.53;;
18114;SDS011;9184;54.390;18.620;2023-02-03T02:12:03;25.27;;;14.70;;
18114;SDS011;9184;54.390;18.620;2023-02-03T02:12:35;21.83;;;13.75;;
18114;SDS011;9184;54.390;18.620;2023-02-03T02:13:05;24.97;;;14.03;;
18114;SDS011;9184;54.390;18.620;2023-02-03T02:13:37;22.70;;;12.45;;
18114;SDS011;9184;54.390;18.620;2023-02-03T02:14:09;21.05;;;11.93;;
18114;SDS011;9184;54.390;18.620;2023-02-03T02:14:39;26.10;;;12.13;;
18114;SDS011;9184;54.390;18.620;2023-02-03T02:15:12;22.17;;;11.10;;
18114;SDS011;9184;54.390;18.620;2023-02-03T02:15:45;23.00;;;11.60;;
18114;SDS011;9184;54.390;18.620;2023-02-03T02:16:20;21.77;;;11.90;;
18114;SDS011;9184;54.390;18.620;2023-02-03T02:16:54;24.17;;;11.88;;
18114;SDS011;9184;54.390;18.620;2023-02-03T02:18:21;16.30;;;9.20;;
18114;SDS011;9184;54.390;18.620;2023-02-03T02:18:59;21.02;;;10.23;;
18114;SDS011;9184;54.390;18.620;2023-02-03T02:19:45;21.98;;;10.23;;
18114;SDS011;9184;54.390;18.620;2023-02-03T02:20:25;21.20;;;10.55;;
18114;SDS011;9184;54.390;18.620;2023-02-03T02:21:05;19.67;;;9.40;;
18114;SDS011;9184;54.390;18.620;2023-02-03T02:21:46;19.88;;;9.85;;
18114;SDS011;9184;54.390;18.620;2023-02-03T02:22:20;15.82;;;9.82;;
18114;SDS011;9184;54.390;18.620;2023-02-03T02:23:17;24.77;;;10.40;;
18114;SDS011;9184;54.390;18.620;2023-02-03T02:24:05;17.70;;;9.48;;
18114;SDS011;9184;54.390;18.620;2023-02-03T02:24:54;22.80;;;10.85;;
18114;SDS011;9184;54.390;18.620;2023-02-03T02:26:36;23.73;;;10.82;;
18114;SDS011;9184;54.390;18.620;2023-02-03T02:27:09;19.35;;;10.07;;
18114;SDS011;9184;54.390;18.620;2023-02-03T02:27:54;17.92;;;10.68;;
18114;SDS011;9184;54.390;18.620;2023-02-03T02:28:38;23.80;;;10.32;;
18114;SDS011;9184;54.390;18.620;2023-02-03T02:31:56;21.23;;;11.20;;
18114;SDS011;9184;54.390;18.620;2023-02-03T02:32:41;17.90;;;10.82;;
18114;SDS011;9184;54.390;18.620;2023-02-03T02:33:15;20.25;;;10.93;;
18114;SDS011;9184;54.390;18.620;2023-02-03T02:33:50;20.90;;;11.73;;
18114;SDS011;9184;54.390;18.620;2023-02-03T02:34:29;21.63;;;11.52;;
18114;SDS011;9184;54.390;18.620;2023-02-03T02:35:06;24.60;;;11.73;;
18114;SDS011;9184;54.390;18.620;2023-02-03T02:35:50;22.45;;;11.82;;
18114;SDS011;9184;54.390;18.620;2023-02-03T02:36:28;26.30;;;13.80;;
18114;SDS011;9184;54.390;18.620;2023-02-03T02:37:01;27.85;;;12.77;;
18114;SDS011;9184;54.390;18.620;2023-02-03T02:37:36;24.25;;;13.32;;
18114;SDS011;9184;54.390;18.620;2023-02-03T02:38:11;26.17;;;14.00;;
18114;SDS011;9184;54.390;18.620;2023-02-03T02:38:45;24.50;;;13.52;;
18114;SDS011;9184;54.390;18.620;2023-02-03T02:39:19;24.27;;;12.82;;
18114;SDS011;9184;54.390;18.620;2023-02-03T02:39:53;24.67;;;13.63;;
18114;SDS011;9184;54.390;18.620;2023-02-03T02:40:27;25.08;;;14.35;;
18114;SDS011;9184;54.390;18.620;2023-02-03T02:41:02;26.98;;;14.15;;
18114;SDS011;9184;54.390;18.620;2023-02-03T02:41:35;24.75;;;13.68;;
18114;SDS011;9184;54.390;18.620;2023-02-03T02:42:11;25.67;;;14.23;;
18114;SDS011;9184;54.390;18.620;2023-02-03T02:42:46;32.38;;;16.20;;
18114;SDS011;9184;54.390;18.620;2023-02-03T02:43:19;34.25;;;16.48;;
18114;SDS011;9184;54.390;18.620;2023-02-03T02:43:54;29.35;;;14.50;;
18114;SDS011;9184;54.390;18.620;2023-02-03T02:44:28;30.98;;;14.40;;
18114;SDS011;9184;54.390;18.620;2023-02-03T02:45:03;27.33;;;13.80;;
18114;SDS011;9184;54.390;18.620;2023-02-03T02:45:37;29.05;;;14.00;;
18114;SDS011;9184;54.390;18.620;2023-02-03T02:46:10;28.27;;;14.82;;
18114;SDS011;9184;54.390;18.620;2023-02-03T02:46:45;25.73;;;13.73;;
18114;SDS011;9184;54.390;18.620;2023-02-03T02:47:18;25.33;;;13.65;;
18114;SDS011;9184;54.390;18.620;2023-02-03T02:47:49;24.15;;;12.63;;
18114;SDS011;9184;54.390;18.620;2023-02-03T02:48:22;28.45;;;14.77;;
18114;SDS011;9184;54.390;18.620;2023-02-03T02:48:57;26.40;;;12.73;;
18114;SDS011;9184;54.390;18.620;2023-02-03T02:49:30;27.63;;;12.43;;
18114;SDS011;9184;54.390;18.620;2023-02-03T02:50:03;21.88;;;13.05;;
18114;SDS011;9184;54.390;18.620;2023-02-03T02:50:37;23.92;;;13.15;;
18114;SDS011;9184;54.390;18.620;2023-02-03T02:51:08;29.52;;;13.73;;
18114;SDS011;9184;54.390;18.620;2023-02-03T02:51:41;21.92;;;12.88;;
18114;SDS011;9184;54.390;18.620;2023-02-03T02:52:14;23.88;;;13.90;;
18114;SDS011;9184;54.390;18.620;2023-02-03T02:52:45;30.08;;;14.15;;
18114;SDS011;9184;54.390;18.620;2023-02-03T02:53:17;22.08;;;12.68;;
18114;SDS011;9184;54.390;18.620;2023-02-03T02:53:52;23.63;;;11.60;;
18114;SDS011;9184;54.390;18.620;2023-02-03T02:54:24;20.13;;;11.07;;
18114;SDS011;9184;54.390;18.620;2023-02-03T02:54:57;18.38;;;9.07;;
18114;SDS011;9184;54.390;18.620;2023-02-03T02:55:31;19.40;;;9.60;;
18114;SDS011;9184;54.390;18.620;2023-02-03T02:56:02;18.57;;;9.47;;
18114;SDS011;9184;54.390;18.620;2023-02-03T02:56:35;19.08;;;9.63;;
18114;SDS011;9184;54.390;18.620;2023-02-03T02:57:08;19.13;;;10.02;;
18114;SDS011;9184;54.390;18.620;2023-02-03T02:57:40;21.85;;;11.27;;
18114;SDS011;9184;54.390;18.620;2023-02-03T02:58:12;21.23;;;10.63;;
18114;SDS011;9184;54.390;18.620;2023-02-03T02:58:44;17.08;;;9.82;;
18114;SDS011;9184;54.390;18.620;2023-02-03T02:59:16;21.57;;;10.43;;
18114;SDS011;9184;54.390;18.620;2023-02-03T02:59:46;17.17;;;10.30;;
18114;SDS011;9184;54.390;18.620;2023-02-03T03:00:18;20.27;;;11.23;;
18114;SDS011;9184;54.390;18.620;2023-02-03T03:00:49;18.73;;;10.10;;
18114;SDS011;9184;54.390;18.620;2023-02-03T03:01:20;36.22;;;11.27;;
18114;SDS011;9184;54.390;18.620;2023-02-03T03:01:52;18.23;;;11.03;;
18114;SDS011;9184;54.390;18.620;2023-02-03T03:02:28;21.53;;;10.77;;
18114;SDS011;9184;54.390;18.620;2023-02-03T03:03:05;23.08;;;11.50;;
18114;SDS011;9184;54.390;18.620;2023-02-03T03:03:36;19.80;;;9.88;;
18114;SDS011;9184;54.390;18.620;2023-02-03T03:04:09;24.83;;;12.60;;
18114;SDS011;9184;54.390;18.620;2023-02-03T03:04:41;16.92;;;9.93;;
18114;SDS011;9184;54.390;18.620;2023-02-03T03:05:13;14.88;;;9.63;;
18114;SDS011;9184;54.390;18.620;2023-02-03T03:05:48;18.73;;;10.43;;
18114;SDS011;9184;54.390;18.620;2023-02-03T03:06:21;21.17;;;10.68;;
18114;SDS011;9184;54.390;18.620;2023-02-03T03:06:54;19.55;;;10.95;;
18114;SDS011;9184;54.390;18.620;2023-02-03T03:07:26;17.38;;;9.40;;
18114;SDS011;9184;54.390;18.620;2023-02-03T03:07:58;17.27;;;10.73;;
18114;SDS011;9184;54.390;18.620;2023-02-03T03:08:33;22.55;;;11.45;;
18114;SDS011;9184;54.390;18.620;2023-02-03T03:09:07;17.20;;;10.33;;
18114;SDS011;9184;54.390;18.620;2023-02-03T03:09:40;17.00;;;9.23;;
18114;SDS011;9184;54.390;18.620;2023-02-03T03:10:12;16.77;;;9.43;;
18114;SDS011;9184;54.390;18.620;2023-02-03T03:10:46;17.53;;;10.03;;
18114;SDS011;9184;54.390;18.620;2023-02-03T03:11:16;13.87;;;9.20;;
18114;SDS011;9184;54.390;18.620;2023-02-03T03:11:48;17.73;;;8.97;;
18114;SDS011;9184;54.390;18.620;2023-02-03T03:12:20;17.65;;;9.32;;
18114;SDS011;9184;54.390;18.620;2023-02-03T03:12:53;16.98;;;9.38;;
18114;SDS011;9184;54.390;18.620;2023-02-03T03:13:26;16.02;;;9.52;;
18114;SDS011;9184;54.390;18.620;2023-02-03T03:14:00;14.93;;;8.30;;
18114;SDS011;9184;54.390;18.620;2023-02-03T03:14:32;16.58;;;9.05;;
18114;SDS011;9184;54.390;18.620;2023-02-03T03:15:03;15.25;;;9.07;;
18114;SDS011;9184;54.390;18.620;2023-02-03T03:15:37;16.27;;;8.57;;
18114;SDS011;9184;54.390;18.620;2023-02-03T03:16:08;19.40;;;9.40;;
18114;SDS011;9184;54.390;18.620;2023-02-03T03:16:40;15.18;;;8.70;;
18114;SDS011;9184;54.390;18.620;2023-02-03T03:17:13;16.73;;;8.40;;
18114;SDS011;9184;54.390;18.620;2023-02-03T03:17:47;16.17;;;9.15;;
18114;SDS011;9184;54.390;18.620;2023-02-03T03:18:19;18.05;;;7.95;;
18114;SDS011;9184;54.390;18.620;2023-02-03T03:18:54;15.13;;;8.77;;
18114;SDS011;9184;54.390;18.620;2023-02-03T03:19:26;16.00;;;8.93;;
18114;SDS011;9184;54.390;18.620;2023-02-03T03:19:59;12.57;;;8.02;;
18114;SDS011;9184;54.390;18.620;2023-02-03T03:20:32;15.60;;;8.97;;